Flight Track Log - Related Links

Times and Time Zones

All times are in EDT time to prevent confusion due to time zone crossing. See the ASA45 flight status page for this flight to view local times or setup timezone preferences in your user account.

Time Position Orientation Groundspeed Altitude Reporting Facility
EDT Latitude Longitude Course Direction KTS MPH feet Rate Location/Type
Mon 10:55:02 PM 61.2333 -150.2667 270° West 260 299 5,900  Level Anchorage Center
Mon 10:57:02 PM 61.2167 -150.5500 263° West 270 311 11,000 2,467 Climbing Anchorage Center
Mon 10:58:00 PM 61.1667 -151.1188 270° West  Level FlightAware Approximate
Mon 10:58:02 PM 61.2167 -150.7500 270° West 340 391 13,300  Level Anchorage Center
Mon 10:59:00 PM 61.1668 -151.3192 270° West  Level FlightAware Approximate
Mon 11:00:00 PM 61.1669 -151.5195 270° West  Level FlightAware Approximate
Mon 11:00:02 PM 61.2167 -151.1500 270° West 350 403 18,700  Level Anchorage Center
Mon 11:01:02 PM 61.2167 -151.3500 270° West 360 414 21,300 2,300 Climbing Anchorage Center
Mon 11:02:02 PM 61.2167 -151.5667 270° West 360 414 23,300 2,083 Climbing Anchorage Center
Mon 11:03:03 PM 61.2167 -151.7667 270° West 370 426 25,500 1,934 Climbing Anchorage Center
Mon 11:04:03 PM 61.2167 -151.9833 270° West 380 437 27,200 2,050 Climbing Anchorage Center
Mon 11:05:03 PM 61.2000 -152.2000 261° West 370 426 29,600 2,250 Climbing Anchorage Center
Mon 11:06:03 PM 61.2000 -152.4167 270° West 360 414 31,700 1,200 Climbing Anchorage Center
Mon 11:07:03 PM 61.2000 -152.6167 270° West 350 403 32,000 150 Climbing Anchorage Center
Mon 11:08:03 PM 61.2000 -152.8167 270° West 360 414 32,000  Level Anchorage Center
Mon 11:09:04 PM 61.2000 -153.0167 270° West 350 403 32,000  Level Anchorage Center
Mon 11:10:04 PM 61.2000 -153.2167 270° West 350 403 32,000  Level Anchorage Center
Mon 11:11:03 PM 61.2000 -153.4167 270° West 360 414 32,000  Level Anchorage Center
Mon 11:12:04 PM 61.1833 -153.6333 261° West 350 403 32,000  Level Anchorage Center
Mon 11:13:04 PM 61.1833 -153.8333 270° West 360 414 32,000  Level Anchorage Center
Mon 11:15:04 PM 61.1667 -154.2500 265° West 350 403 32,000  Level Anchorage Center
Mon 11:16:04 PM 61.1667 -154.4500 270° West 360 414 32,000  Level Anchorage Center
Mon 11:17:04 PM 61.1667 -154.6500 270° West 350 403 32,000  Level Anchorage Center
Mon 11:18:04 PM 61.1500 -154.8667 261° West 360 414 32,000  Level Anchorage Center
Mon 11:19:04 PM 61.1500 -155.0667 270° West 350 403 32,000  Level Anchorage Center
Mon 11:20:05 PM 61.1500 -155.3167 270° West 360 414 32,000  Level Anchorage Center
Mon 11:21:05 PM 61.1333 -155.5000 259° West 350 403 32,000  Level Anchorage Center
Mon 11:22:05 PM 61.1333 -155.7000 270° West 350 403 32,000  Level Anchorage Center
Mon 11:23:05 PM 61.1167 -155.9167 261° West 370 426 32,000  Level Anchorage Center
Mon 11:24:05 PM 61.1167 -156.1333 270° West 360 414 32,000  Level Anchorage Center
Mon 11:25:05 PM 61.1000 -156.3333 260° West 360 414 32,000  Level Anchorage Center
Mon 11:26:05 PM 61.1000 -156.5500 270° West 360 414 32,000  Level Anchorage Center
Mon 11:27:05 PM 61.0833 -156.7667 261° West 370 426 32,000  Level Anchorage Center
Mon 11:28:05 PM 61.0833 -156.9833 270° West 370 426 32,000  Level Anchorage Center
Mon 11:29:05 PM 61.0667 -157.2000 261° West 370 426 32,000  Level Anchorage Center
Mon 11:30:06 PM 61.0667 -157.4167 270° West 370 426 32,000  Level Anchorage Center
Mon 11:31:06 PM 61.0500 -157.6333 261° West 380 437 32,000  Level Anchorage Center
Mon 11:32:06 PM 61.0333 -157.8500 261° West 370 426 32,000  Level Anchorage Center
Mon 11:33:06 PM 61.0333 -158.0667 270° West 370 426 32,000  Level Anchorage Center
Mon 11:34:06 PM 61.0167 -158.2833 261° West 370 426 32,000  Level Anchorage Center
Mon 11:35:06 PM 61.0000 -158.5000 261° West 380 437 32,000  Level Anchorage Center
Mon 11:36:06 PM 61.0000 -158.7333 270° West 390 449 32,000  Level Anchorage Center
Mon 11:37:06 PM 60.9833 -158.9500 261° West 380 437 32,000 -942 Level Anchorage Center
Mon 11:38:07 PM 60.9667 -159.1667 261° West 390 449 30,100 -2,826 Descending Anchorage Center
Mon 11:39:07 PM 60.9500 -159.3833 261° West 390 449 26,300 -3,150 Descending Anchorage Center
Mon 11:40:07 PM 60.9500 -159.6167 270° West 380 437 23,800 -2,650 Descending Anchorage Center
Mon 11:41:07 PM 60.9167 -159.8167 251° West 360 414 21,000 -2,800 Descending Anchorage Center
Mon 11:42:07 PM 60.9167 -160.0167 270° West 360 414 18,200 -2,650 Descending Anchorage Center
Mon 11:43:07 PM 60.9000 -160.2167 260° West 350 403 15,700 -2,650 Descending Anchorage Center
Mon 11:44:07 PM 60.8667 -160.4167 251° West 350 403 12,900 -2,479 Descending Anchorage Center
Mon 11:45:08 PM 60.8667 -160.6167 270° West 340 391 10,700 -1,550 Descending Anchorage Center
Mon 11:46:07 PM 60.8500 -160.8167 260° West 320 368 9,800 -1,210 Descending Anchorage Center
Mon 11:47:07 PM 60.8333 -160.9667 257° West 260 299 8,300 -1,636 Descending Anchorage Center
Mon 11:48:08 PM 60.8333 -161.1167 270° West 270 311 6,500 -1,686 Descending Anchorage Center
Mon 11:49:08 PM 60.8167 -161.2667 257° West 240 276 4,900 -1,600 Descending Anchorage Center
Mon 11:51:00 PM 60.7878 -161.6223 258° West  Level FlightAware Approximate
Mon 11:58:00 PM 60.7667 -161.8333 258° West  Level FlightAware Approximate
Mon 11:59:00 PM 60.7786 -161.8372 258° West  Level Estimated
Tue 12:00:00 AM 60.7786 -161.8372 258° West  Level Estimated
Tue 12:01:00 AM 60.7786 -161.8372 258° West  Level Estimated
Tue 12:02:00 AM 60.7786 -161.8372 258° West  Level Estimated
Tue 12:03:00 AM 60.7786 -161.8372 258° West  Level Estimated

Login

Don't have an account? Register now (free) for customized features, flight alerts, and more!